sensor_id;sensor_type;location;lat;lon;timestamp;pressure;altitude;pressure_sealevel;temperature;humidity
62680;BME280;68213;40.528;44.712;2023-05-11T00:01:07;80570.16;;;7.08;75.06
62680;BME280;68213;40.528;44.712;2023-05-11T00:02:09;80574.03;;;7.07;74.98
62680;BME280;68213;40.528;44.712;2023-05-11T00:03:13;80568.81;;;7.07;75.23
62680;BME280;68213;40.528;44.712;2023-05-11T00:04:14;80558.66;;;7.02;75.59
62680;BME280;68213;40.528;44.712;2023-05-11T00:05:14;80572.25;;;7.10;75.35
62680;BME280;68213;40.528;44.712;2023-05-11T00:06:15;80572.34;;;7.12;75.21
62680;BME280;68213;40.528;44.712;2023-05-11T00:07:16;80568.94;;;7.09;75.11
62680;BME280;68213;40.528;44.712;2023-05-11T00:08:16;80574.84;;;7.10;75.01
62680;BME280;68213;40.528;44.712;2023-05-11T00:09:17;80558.94;;;6.96;74.93
62680;BME280;68213;40.528;44.712;2023-05-11T00:10:18;80572.66;;;7.06;74.82
62680;BME280;68213;40.528;44.712;2023-05-11T00:11:18;80569.34;;;7.06;74.59
62680;BME280;68213;40.528;44.712;2023-05-11T00:12:20;80565.25;;;7.03;75.09
62680;BME280;68213;40.528;44.712;2023-05-11T00:13:21;80571.16;;;7.03;75.08
62680;BME280;68213;40.528;44.712;2023-05-11T00:14:21;80572.94;;;7.01;75.02
62680;BME280;68213;40.528;44.712;2023-05-11T00:15:23;80577.75;;;7.04;75.00
62680;BME280;68213;40.528;44.712;2023-05-11T00:16:23;80577.06;;;7.04;74.75
62680;BME280;68213;40.528;44.712;2023-05-11T00:17:24;80576.50;;;7.05;74.95
62680;BME280;68213;40.528;44.712;2023-05-11T00:18:25;80571.44;;;7.07;74.95
62680;BME280;68213;40.528;44.712;2023-05-11T00:19:25;80563.19;;;7.01;74.71
62680;BME280;68213;40.528;44.712;2023-05-11T00:20:27;80582.56;;;7.08;74.63
62680;BME280;68213;40.528;44.712;2023-05-11T00:21:31;80578.44;;;7.05;74.57
62680;BME280;68213;40.528;44.712;2023-05-11T00:22:34;80578.44;;;7.05;74.59
62680;BME280;68213;40.528;44.712;2023-05-11T00:23:35;80577.47;;;7.00;74.69
62680;BME280;68213;40.528;44.712;2023-05-11T00:24:35;80574.31;;;7.02;74.83
62680;BME280;68213;40.528;44.712;2023-05-11T00:25:36;80561.97;;;6.92;75.36
62680;BME280;68213;40.528;44.712;2023-05-11T00:26:38;80570.59;;;7.05;74.90
62680;BME280;68213;40.528;44.712;2023-05-11T00:27:39;80568.13;;;7.07;74.70
62680;BME280;68213;40.528;44.712;2023-05-11T00:28:45;80572.25;;;7.10;74.53
62680;BME280;68213;40.528;44.712;2023-05-11T00:29:45;80571.69;;;7.11;74.64
62680;BME280;68213;40.528;44.712;2023-05-11T00:30:46;80567.56;;;7.08;74.06
62680;BME280;68213;40.528;44.712;2023-05-11T00:31:46;80575.28;;;7.06;73.82
62680;BME280;68213;40.528;44.712;2023-05-11T00:32:49;80574.31;;;7.02;73.97
62680;BME280;68213;40.528;44.712;2023-05-11T00:33:51;80578.19;;;7.01;74.23
62680;BME280;68213;40.528;44.712;2023-05-11T00:34:54;80580.09;;;7.00;74.44
62680;BME280;68213;40.528;44.712;2023-05-11T00:35:54;80575.44;;;6.98;74.64
62680;BME280;68213;40.528;44.712;2023-05-11T00:36:55;80581.34;;;6.99;74.50
62680;BME280;68213;40.528;44.712;2023-05-11T00:37:56;80578.84;;;7.01;74.50
62680;BME280;68213;40.528;44.712;2023-05-11T00:38:59;80584.66;;;6.99;74.74
62680;BME280;68213;40.528;44.712;2023-05-11T00:39:59;80570.63;;;6.95;74.97
62680;BME280;68213;40.528;44.712;2023-05-11T00:41:00;80580.09;;;7.00;75.43
62680;BME280;68213;40.528;44.712;2023-05-11T00:42:00;80575.44;;;6.98;75.80
62680;BME280;68213;40.528;44.712;2023-05-11T00:43:03;80574.88;;;7.00;75.93
62680;BME280;68213;40.528;44.712;2023-05-11T00:44:04;80574.19;;;6.99;76.15
62680;BME280;68213;40.528;44.712;2023-05-11T00:45:05;80578.03;;;6.98;76.13
62680;BME280;68213;40.528;44.712;2023-05-11T00:46:06;80568.16;;;6.97;75.64
62680;BME280;68213;40.528;44.712;2023-05-11T00:47:07;80572.28;;;6.90;75.96
62680;BME280;68213;40.528;44.712;2023-05-11T00:48:07;80573.81;;;6.93;76.29
62680;BME280;68213;40.528;44.712;2023-05-11T00:49:08;80578.06;;;6.89;76.15
62680;BME280;68213;40.528;44.712;2023-05-11T00:50:09;80587.31;;;6.80;76.44
62680;BME280;68213;40.528;44.712;2023-05-11T00:51:10;80578.09;;;6.79;77.25
62680;BME280;68213;40.528;44.712;2023-05-11T00:52:12;80577.69;;;6.82;76.82
62680;BME280;68213;40.528;44.712;2023-05-11T00:53:13;80578.50;;;6.85;76.55
62680;BME280;68213;40.528;44.712;2023-05-11T00:54:14;80581.25;;;6.87;76.49
62680;BME280;68213;40.528;44.712;2023-05-11T00:55:20;80581.94;;;6.88;76.22
62680;BME280;68213;40.528;44.712;2023-05-11T00:56:21;80584.28;;;6.83;76.79
62680;BME280;68213;40.528;44.712;2023-05-11T00:57:22;80590.31;;;6.86;77.10
62680;BME280;68213;40.528;44.712;2023-05-11T00:58:23;80579.44;;;6.90;77.18
62680;BME280;68213;40.528;44.712;2023-05-11T00:59:24;80581.94;;;6.88;77.25
62680;BME280;68213;40.528;44.712;2023-05-11T01:00:26;80576.03;;;6.87;77.30
62680;BME280;68213;40.528;44.712;2023-05-11T01:01:27;80580.25;;;6.92;77.48
62680;BME280;68213;40.528;44.712;2023-05-11T01:02:32;80582.47;;;6.96;77.15
62680;BME280;68213;40.528;44.712;2023-05-11T01:03:34;80572.69;;;6.96;77.14
62680;BME280;68213;40.528;44.712;2023-05-11T01:04:35;80578.59;;;6.97;76.89
62680;BME280;68213;40.528;44.712;2023-05-11T01:05:47;80576.66;;;6.97;76.84
62680;BME280;68213;40.528;44.712;2023-05-11T01:07:22;80579.97;;;6.98;76.69
62680;BME280;68213;40.528;44.712;2023-05-11T01:08:54;80570.34;;;7.01;77.13
62680;BME280;68213;40.528;44.712;2023-05-11T01:10:08;80566.78;;;6.96;77.52
62680;BME280;68213;40.528;44.712;2023-05-11T01:11:40;80571.72;;;7.02;78.00
62680;BME280;68213;40.528;44.712;2023-05-11T01:16:21;80566.09;;;6.95;77.33
62680;BME280;68213;40.528;44.712;2023-05-11T01:20:35;80561.38;;;7.04;78.02
62680;BME280;68213;40.528;44.712;2023-05-11T01:21:38;80562.88;;;7.07;78.58
62680;BME280;68213;40.528;44.712;2023-05-11T01:24:25;80565.94;;;7.03;78.41
62680;BME280;68213;40.528;44.712;2023-05-11T01:26:46;80567.09;;;6.80;78.25
62680;BME280;68213;40.528;44.712;2023-05-11T01:31:02;80560.34;;;6.87;78.43
62680;BME280;68213;40.528;44.712;2023-05-11T01:32:14;80565.56;;;6.87;78.47
62680;BME280;68213;40.528;44.712;2023-05-11T01:33:22;80565.00;;;6.89;78.61
62680;BME280;68213;40.528;44.712;2023-05-11T01:34:28;80564.44;;;6.90;78.83
62680;BME280;68213;40.528;44.712;2023-05-11T01:35:32;80565.16;;;6.91;78.85
62680;BME280;68213;40.528;44.712;2023-05-11T01:36:39;80554.59;;;6.79;78.75
62680;BME280;68213;40.528;44.712;2023-05-11T01:37:46;80561.72;;;6.78;78.68
62680;BME280;68213;40.528;44.712;2023-05-11T01:38:47;80559.13;;;6.78;78.59
62680;BME280;68213;40.528;44.712;2023-05-11T01:39:56;80565.03;;;6.79;78.49
62680;BME280;68213;40.528;44.712;2023-05-11T01:40:59;80564.47;;;6.80;79.25
62680;BME280;68213;40.528;44.712;2023-05-11T01:42:09;80556.91;;;6.75;78.92
62680;BME280;68213;40.528;44.712;2023-05-11T01:43:18;80555.00;;;6.75;79.16
62680;BME280;68213;40.528;44.712;2023-05-11T01:44:24;80569.28;;;6.84;79.18
62680;BME280;68213;40.528;44.712;2023-05-11T01:45:30;80579.16;;;6.86;78.68
62680;BME280;68213;40.528;44.712;2023-05-11T01:46:32;80563.09;;;6.79;78.56
62680;BME280;68213;40.528;44.712;2023-05-11T01:47:34;80579.16;;;6.86;78.21
62680;BME280;68213;40.528;44.712;2023-05-11T01:48:40;80576.31;;;6.81;78.60
62680;BME280;68213;40.528;44.712;2023-05-11T01:49:43;80571.50;;;6.78;78.88
62680;BME280;68213;40.528;44.712;2023-05-11T01:50:45;80569.56;;;6.78;79.16
62680;BME280;68213;40.528;44.712;2023-05-11T01:51:48;80575.63;;;6.81;79.43
62680;BME280;68213;40.528;44.712;2023-05-11T01:52:53;80580.97;;;6.83;79.06
62680;BME280;68213;40.528;44.712;2023-05-11T01:53:55;80574.38;;;6.82;79.14
62680;BME280;68213;40.528;44.712;2023-05-11T01:54:56;80572.59;;;6.85;79.44
62680;BME280;68213;40.528;44.712;2023-05-11T01:55:59;80570.09;;;6.87;78.77
62680;BME280;68213;40.528;44.712;2023-05-11T01:57:02;80576.56;;;6.86;78.51
62680;BME280;68213;40.528;44.712;2023-05-11T01:58:03;80569.56;;;6.78;78.53
62680;BME280;68213;40.528;44.712;2023-05-11T01:59:05;80573.28;;;6.85;78.38
62680;BME280;68213;40.528;44.712;2023-05-11T02:00:07;80576.03;;;6.87;78.56
62680;BME280;68213;40.528;44.712;2023-05-11T02:01:09;80578.63;;;6.87;78.27
62680;BME280;68213;40.528;44.712;2023-05-11T02:02:11;80572.16;;;6.88;78.22
62680;BME280;68213;40.528;44.712;2023-05-11T02:03:14;80581.25;;;6.87;78.21
62680;BME280;68213;40.528;44.712;2023-05-11T02:04:17;80582.34;;;6.84;78.57
62680;BME280;68213;40.528;44.712;2023-05-11T02:05:21;80583.59;;;6.83;78.48
62680;BME280;68213;40.528;44.712;2023-05-11T02:06:23;80583.72;;;6.85;78.61
62680;BME280;68213;40.528;44.712;2023-05-11T02:07:25;80583.31;;;6.79;77.99
62680;BME280;68213;40.528;44.712;2023-05-11T02:08:30;80575.09;;;6.73;78.37
62680;BME280;68213;40.528;44.712;2023-05-11T02:09:33;80585.38;;;6.80;78.33
62680;BME280;68213;40.528;44.712;2023-05-11T02:10:36;80586.63;;;6.79;78.68
62680;BME280;68213;40.528;44.712;2023-05-11T02:11:39;80583.47;;;6.81;79.00
62680;BME280;68213;40.528;44.712;2023-05-11T02:12:44;80584.28;;;6.83;78.50
62680;BME280;68213;40.528;44.712;2023-05-11T02:13:46;80590.31;;;6.86;78.20
62680;BME280;68213;40.528;44.712;2023-05-11T02:14:49;80590.31;;;6.86;78.05
62680;BME280;68213;40.528;44.712;2023-05-11T02:15:52;80579.47;;;6.80;78.00
62680;BME280;68213;40.528;44.712;2023-05-11T02:16:55;80586.59;;;6.89;77.87
62680;BME280;68213;40.528;44.712;2023-05-11T02:17:57;80597.03;;;6.89;77.85
62680;BME280;68213;40.528;44.712;2023-05-11T02:18:58;80596.22;;;6.87;78.17
62680;BME280;68213;40.528;44.712;2023-05-11T02:20:19;80595.69;;;6.88;78.04
62680;BME280;68213;40.528;44.712;2023-05-11T02:21:20;80604.88;;;6.89;77.63
62680;BME280;68213;40.528;44.712;2023-05-11T02:22:21;80603.78;;;6.92;77.56
62680;BME280;68213;40.528;44.712;2023-05-11T02:23:24;80599.78;;;6.91;77.40
62680;BME280;68213;40.528;44.712;2023-05-11T02:24:26;80597.88;;;6.92;77.41
62680;BME280;68213;40.528;44.712;2023-05-11T02:25:29;80600.75;;;6.96;77.30
62680;BME280;68213;40.528;44.712;2023-05-11T02:26:31;80600.88;;;6.98;76.86
62680;BME280;68213;40.528;44.712;2023-05-11T02:27:32;80601.00;;;7.00;77.01
62680;BME280;68213;40.528;44.712;2023-05-11T02:28:33;80605.56;;;6.99;76.49
62680;BME280;68213;40.528;44.712;2023-05-11T02:29:34;80601.69;;;7.01;76.53
62680;BME280;68213;40.528;44.712;2023-05-11T02:30:40;80601.84;;;7.03;76.49
62680;BME280;68213;40.528;44.712;2023-05-11T02:31:46;80600.47;;;7.02;76.45
62680;BME280;68213;40.528;44.712;2023-05-11T02:32:50;80590.69;;;7.02;76.31
62680;BME280;68213;40.528;44.712;2023-05-11T02:33:55;80598.66;;;7.04;76.40
62680;BME280;68213;40.528;44.712;2023-05-11T02:35:00;80596.88;;;7.07;76.13
62680;BME280;68213;40.528;44.712;2023-05-11T02:36:02;80595.75;;;7.10;75.89
62680;BME280;68213;40.528;44.712;2023-05-11T02:37:08;80597.69;;;7.09;75.89
62680;BME280;68213;40.528;44.712;2023-05-11T02:38:10;80593.25;;;7.12;76.16
62680;BME280;68213;40.528;44.712;2023-05-11T02:39:13;80600.00;;;7.15;75.89
62680;BME280;68213;40.528;44.712;2023-05-11T02:40:27;80599.44;;;7.17;75.71
62680;BME280;68213;40.528;44.712;2023-05-11T02:41:30;80592.41;;;7.19;75.71
62680;BME280;68213;40.528;44.712;2023-05-11T02:42:35;80589.94;;;7.21;76.33
62680;BME280;68213;40.528;44.712;2023-05-11T02:43:43;80587.88;;;7.20;76.50
62680;BME280;68213;40.528;44.712;2023-05-11T02:44:53;80599.34;;;7.14;77.37
62680;BME280;68213;40.528;44.712;2023-05-11T02:46:10;80602.75;;;7.17;76.56
62680;BME280;68213;40.528;44.712;2023-05-11T02:47:13;80562.34;;;6.98;76.48
62680;BME280;68213;40.528;44.712;2023-05-11T02:48:21;80593.69;;;7.08;76.87
62680;BME280;68213;40.528;44.712;2023-05-11T02:49:24;80599.19;;;7.12;77.09
62680;BME280;68213;40.528;44.712;2023-05-11T02:50:26;80594.34;;;7.19;76.71
62680;BME280;68213;40.528;44.712;2023-05-11T02:51:33;80599.84;;;7.23;76.57
62680;BME280;68213;40.528;44.712;2023-05-11T02:52:40;80595.00;;;7.29;76.22
62680;BME280;68213;40.528;44.712;2023-05-11T02:53:45;80594.16;;;7.36;76.07
62680;BME280;68213;40.528;44.712;2023-05-11T02:54:48;80591.22;;;7.42;75.93
62680;BME280;68213;40.528;44.712;2023-05-11T02:55:50;80562.16;;;7.16;75.68
62680;BME280;68213;40.528;44.712;2023-05-11T02:56:51;80600.97;;;7.51;75.68
62680;BME280;68213;40.528;44.712;2023-05-11T02:57:52;80599.16;;;7.54;75.70
62680;BME280;68213;40.528;44.712;2023-05-11T02:58:53;80582.28;;;7.45;75.65
62680;BME280;68213;40.528;44.712;2023-05-11T02:59:54;80593.63;;;7.59;75.57
62680;BME280;68213;40.528;44.712;2023-05-11T03:00:55;80602.06;;;7.58;76.14
62680;BME280;68213;40.528;44.712;2023-05-11T03:01:56;80598.19;;;7.59;76.07
62680;BME280;68213;40.528;44.712;2023-05-11T03:02:58;80603.09;;;7.65;75.97
62680;BME280;68213;40.528;44.712;2023-05-11T03:03:59;80602.13;;;7.70;75.57
62680;BME280;68213;40.528;44.712;2023-05-11T03:04:59;80597.81;;;7.74;75.60
62680;BME280;68213;40.528;44.712;2023-05-11T03:06:00;80601.53;;;7.81;76.01
62680;BME280;68213;40.528;44.712;2023-05-11T03:07:01;80601.81;;;7.75;76.43
62680;BME280;68213;40.528;44.712;2023-05-11T03:08:02;80596.56;;;7.85;76.08
62680;BME280;68213;40.528;44.712;2023-05-11T03:09:05;80598.31;;;7.92;75.48
62680;BME280;68213;40.528;44.712;2023-05-11T03:10:07;80597.97;;;7.98;75.07
62680;BME280;68213;40.528;44.712;2023-05-11T03:11:08;80593.13;;;8.04;74.82
62680;BME280;68213;40.528;44.712;2023-05-11T03:12:09;80594.75;;;8.09;74.71
62680;BME280;68213;40.528;44.712;2023-05-11T03:13:10;80599.69;;;8.15;74.39
62680;BME280;68213;40.528;44.712;2023-05-11T03:14:12;80594.81;;;8.21;74.77
62680;BME280;68213;40.528;44.712;2023-05-11T03:15:14;80599.63;;;8.25;75.04
62680;BME280;68213;40.528;44.712;2023-05-11T03:16:15;80600.66;;;8.32;74.64
62680;BME280;68213;40.528;44.712;2023-05-11T03:17:18;80598.31;;;8.36;75.09
62680;BME280;68213;40.528;44.712;2023-05-11T03:18:21;80595.34;;;8.41;75.27
62680;BME280;68213;40.528;44.712;2023-05-11T03:19:22;80597.53;;;8.45;75.26
62680;BME280;68213;40.528;44.712;2023-05-11T03:20:23;80600.31;;;8.47;74.77
62680;BME280;68213;40.528;44.712;2023-05-11T03:21:25;80578.97;;;8.41;74.35
62680;BME280;68213;40.528;44.712;2023-05-11T03:22:26;80591.00;;;8.56;74.25
62680;BME280;68213;40.528;44.712;2023-05-11T03:23:29;80592.06;;;8.63;73.97
62680;BME280;68213;40.528;44.712;2023-05-11T03:24:30;80587.75;;;8.67;73.73
62680;BME280;68213;40.528;44.712;2023-05-11T03:25:31;80589.91;;;8.71;73.89
62680;BME280;68213;40.528;44.712;2023-05-11T03:26:32;80593.09;;;8.69;74.34
62680;BME280;68213;40.528;44.712;2023-05-11T03:27:34;80596.88;;;8.78;74.28
62680;BME280;68213;40.528;44.712;2023-05-11T03:28:36;80598.38;;;8.81;73.63
62680;BME280;68213;40.528;44.712;2023-05-11T03:30:43;80595.06;;;8.81;73.51
62680;BME280;68213;40.528;44.712;2023-05-11T03:31:45;80599.75;;;8.82;73.12
62680;BME280;68213;40.528;44.712;2023-05-11T03:32:46;80600.13;;;8.88;73.04
62680;BME280;68213;40.528;44.712;2023-05-11T03:33:47;80606.84;;;8.92;72.78
62680;BME280;68213;40.528;44.712;2023-05-11T03:34:48;80599.09;;;8.94;72.67
62680;BME280;68213;40.528;44.712;2023-05-11T03:35:50;80600.47;;;8.95;72.57
62680;BME280;68213;40.528;44.712;2023-05-11T03:36:51;80590.19;;;8.87;72.58
62680;BME280;68213;40.528;44.712;2023-05-11T03:37:55;80602.88;;;9.02;72.28
62680;BME280;68213;40.528;44.712;2023-05-11T03:38:57;80604.38;;;9.05;72.24
62680;BME280;68213;40.528;44.712;2023-05-11T03:39:59;80575.38;;;8.92;72.29
62680;BME280;68213;40.528;44.712;2023-05-11T03:41:00;80613.97;;;9.13;72.18
62680;BME280;68213;40.528;44.712;2023-05-11T03:42:01;80603.84;;;9.19;71.94
62680;BME280;68213;40.528;44.712;2023-05-11T03:43:04;80564.41;;;8.83;71.98
62680;BME280;68213;40.528;44.712;2023-05-11T03:44:07;80615.81;;;9.22;71.28
62680;BME280;68213;40.528;44.712;2023-05-11T03:45:12;80607.38;;;9.24;71.21
62680;BME280;68213;40.528;44.712;2023-05-11T03:46:17;80607.72;;;9.30;70.76
62680;BME280;68213;40.528;44.712;2023-05-11T03:47:22;80601.25;;;9.31;70.20
62680;BME280;68213;40.528;44.712;2023-05-11T03:48:25;80602.75;;;9.34;71.33
62680;BME280;68213;40.528;44.712;2023-05-11T03:49:26;80604.34;;;9.39;70.36
62680;BME280;68213;40.528;44.712;2023-05-11T03:50:28;80596.34;;;9.37;70.34
62680;BME280;68213;40.528;44.712;2023-05-11T03:51:29;80602.19;;;9.47;70.71
62680;BME280;68213;40.528;44.712;2023-05-11T03:52:31;80602.28;;;9.49;70.18
62680;BME280;68213;40.528;44.712;2023-05-11T03:53:32;80600.03;;;9.56;70.23
62680;BME280;68213;40.528;44.712;2023-05-11T03:54:33;80597.50;;;9.58;69.76
62680;BME280;68213;40.528;44.712;2023-05-11T03:55:33;80592.63;;;9.64;69.38
62680;BME280;68213;40.528;44.712;2023-05-11T03:56:35;80609.72;;;9.53;69.28
62680;BME280;68213;40.528;44.712;2023-05-11T03:57:37;80600.03;;;9.56;68.96
62680;BME280;68213;40.528;44.712;2023-05-11T03:58:39;80600.13;;;9.58;69.52
62680;BME280;68213;40.528;44.712;2023-05-11T03:59:40;80607.19;;;9.55;69.34
62680;BME280;68213;40.528;44.712;2023-05-11T04:00:41;80605.50;;;9.60;69.17
62680;BME280;68213;40.528;44.712;2023-05-11T04:01:44;80599.66;;;9.61;68.75
62680;BME280;68213;40.528;44.712;2023-05-11T04:02:45;80597.28;;;9.53;68.46
62680;BME280;68213;40.528;44.712;2023-05-11T04:03:50;80616.56;;;9.70;67.97
62680;BME280;68213;40.528;44.712;2023-05-11T04:04:51;80607.00;;;9.75;67.96
62680;BME280;68213;40.528;44.712;2023-05-11T04:05:52;80611.88;;;9.80;67.68
62680;BME280;68213;40.528;44.712;2023-05-11T04:06:52;80606.75;;;9.82;64.29
62680;BME280;68213;40.528;44.712;2023-05-11T04:07:53;80605.97;;;9.92;64.34
62680;BME280;68213;40.528;44.712;2023-05-11T04:08:54;80612.59;;;9.93;66.89
62680;BME280;68213;40.528;44.712;2023-05-11T04:09:55;80612.69;;;9.95;66.72
62680;BME280;68213;40.528;44.712;2023-05-11T04:10:55;80612.94;;;9.99;66.78
62680;BME280;68213;40.528;44.712;2023-05-11T04:11:56;80605.84;;;10.02;66.85
62680;BME280;68213;40.528;44.712;2023-05-11T04:12:57;80582.34;;;9.92;62.24
62680;BME280;68213;40.528;44.712;2023-05-11T04:13:57;80613.84;;;10.15;63.81
62680;BME280;68213;40.528;44.712;2023-05-11T04:14:58;80604.22;;;10.20;67.28
62680;BME280;68213;40.528;44.712;2023-05-11T04:15:59;80611.88;;;10.28;67.12
62680;BME280;68213;40.528;44.712;2023-05-11T04:17:00;80610.81;;;10.33;67.07
62680;BME280;68213;40.528;44.712;2023-05-11T04:18:00;80613.00;;;10.37;67.12
62680;BME280;68213;40.528;44.712;2023-05-11T04:19:01;80615.75;;;10.39;66.79
62680;BME280;68213;40.528;44.712;2023-05-11T04:20:02;80612.66;;;10.42;66.29
62680;BME280;68213;40.528;44.712;2023-05-11T04:21:04;80591.88;;;10.35;66.30
62680;BME280;68213;40.528;44.712;2023-05-11T04:22:05;80609.22;;;10.52;65.53
62680;BME280;68213;40.528;44.712;2023-05-11T04:23:06;80613.13;;;10.51;65.30
62680;BME280;68213;40.528;44.712;2023-05-11T04:24:07;80598.72;;;10.52;65.71
62680;BME280;68213;40.528;44.712;2023-05-11T04:25:08;80608.31;;;10.59;65.45
62680;BME280;68213;40.528;44.712;2023-05-11T04:26:09;80602.56;;;10.62;65.04
62680;BME280;68213;40.528;44.712;2023-05-11T04:27:10;80608.88;;;10.57;65.44
62680;BME280;68213;40.528;44.712;2023-05-11T04:28:11;80610.13;;;10.56;65.85
62680;BME280;68213;40.528;44.712;2023-05-11T04:29:11;80610.81;;;10.57;65.88
62680;BME280;68213;40.528;44.712;2023-05-11T04:30:12;80613.69;;;10.61;65.58
62680;BME280;68213;40.528;44.712;2023-05-11T04:31:13;80583.88;;;10.44;65.49
62680;BME280;68213;40.528;44.712;2023-05-11T04:32:14;80577.38;;;10.45;65.14
62680;BME280;68213;40.528;44.712;2023-05-11T04:33:15;80607.09;;;10.74;64.41
62680;BME280;68213;40.528;44.712;2023-05-11T04:34:15;80613.59;;;10.85;64.39
62680;BME280;68213;40.528;44.712;2023-05-11T04:35:16;80608.22;;;10.94;64.21
62680;BME280;68213;40.528;44.712;2023-05-11T04:36:17;80609.97;;;11.04;64.51
62680;BME280;68213;40.528;44.712;2023-05-11T04:37:19;80607.19;;;11.14;59.46
62680;BME280;68213;40.528;44.712;2023-05-11T04:38:21;80600.50;;;11.24;55.12
62680;BME280;68213;40.528;44.712;2023-05-11T04:39:21;80605.94;;;11.40;54.66
62680;BME280;68213;40.528;44.712;2023-05-11T04:40:22;80600.03;;;11.54;54.34
62680;BME280;68213;40.528;44.712;2023-05-11T04:41:23;80608.44;;;11.64;54.84
62680;BME280;68213;40.528;44.712;2023-05-11T04:42:23;80604.28;;;11.73;54.70
62680;BME280;68213;40.528;44.712;2023-05-11T04:43:24;80616.47;;;11.80;52.71
62680;BME280;68213;40.528;44.712;2023-05-11T04:44:25;80613.56;;;11.88;52.63
62680;BME280;68213;40.528;44.712;2023-05-11T04:45:26;80623.25;;;11.97;52.27
62680;BME280;68213;40.528;44.712;2023-05-11T04:46:26;80619.00;;;12.04;51.91
62680;BME280;68213;40.528;44.712;2023-05-11T04:47:27;80640.84;;;12.06;50.43
62680;BME280;68213;40.528;44.712;2023-05-11T04:48:27;80650.00;;;12.05;50.51
62680;BME280;68213;40.528;44.712;2023-05-11T04:49:28;80649.81;;;12.01;49.96
62680;BME280;68213;40.528;44.712;2023-05-11T04:50:29;80637.66;;;11.96;50.24
62680;BME280;68213;40.528;44.712;2023-05-11T04:51:30;80619.97;;;11.97;50.07
62680;BME280;68213;40.528;44.712;2023-05-11T04:52:31;80627.09;;;12.08;50.19
62680;BME280;68213;40.528;44.712;2023-05-11T04:53:31;80614.31;;;12.02;50.28
62680;BME280;68213;40.528;44.712;2023-05-11T04:54:32;80622.03;;;12.26;48.85
62680;BME280;68213;40.528;44.712;2023-05-11T04:55:33;80629.44;;;12.30;49.13
62680;BME280;68213;40.528;44.712;2023-05-11T04:56:33;80627.59;;;12.32;49.11
62680;BME280;68213;40.528;44.712;2023-05-11T04:57:39;80612.16;;;12.41;49.64
62680;BME280;68213;40.528;44.712;2023-05-11T04:58:40;80579.78;;;12.24;49.58
62680;BME280;68213;40.528;44.712;2023-05-11T04:59:40;80609.66;;;12.57;49.30
62680;BME280;68213;40.528;44.712;2023-05-11T05:00:41;80614.31;;;12.58;48.90
62680;BME280;68213;40.528;44.712;2023-05-11T05:01:42;80608.38;;;12.58;48.77
62680;BME280;68213;40.528;44.712;2023-05-11T05:02:42;80610.03;;;12.65;48.64
62680;BME280;68213;40.528;44.712;2023-05-11T05:03:47;80607.78;;;12.73;48.98
62680;BME280;68213;40.528;44.712;2023-05-11T05:04:52;80615.28;;;12.79;48.56
62680;BME280;68213;40.528;44.712;2023-05-11T05:05:53;80606.31;;;12.84;47.89
62680;BME280;68213;40.528;44.712;2023-05-11T05:06:53;80609.22;;;12.90;47.25
62680;BME280;68213;40.528;44.712;2023-05-11T05:07:54;80613.41;;;12.95;47.57
62680;BME280;68213;40.528;44.712;2023-05-11T05:08:58;80610.66;;;13.07;47.45
62680;BME280;68213;40.528;44.712;2023-05-11T05:09:58;80599.31;;;13.05;47.77
62680;BME280;68213;40.528;44.712;2023-05-11T05:11:00;80608.97;;;13.14;47.56
62680;BME280;68213;40.528;44.712;2023-05-11T05:12:00;80604.56;;;13.18;47.30
62680;BME280;68213;40.528;44.712;2023-05-11T05:13:01;80632.81;;;13.16;46.64
62680;BME280;68213;40.528;44.712;2023-05-11T05:14:01;80633.25;;;12.96;46.49
62680;BME280;68213;40.528;44.712;2023-05-11T05:15:06;80613.41;;;12.95;47.00
62680;BME280;68213;40.528;44.712;2023-05-11T05:16:06;80602.88;;;12.81;47.29
62680;BME280;68213;40.528;44.712;2023-05-11T05:17:07;80603.28;;;12.76;46.98
62680;BME280;68213;40.528;44.712;2023-05-11T05:18:10;80612.25;;;12.70;47.04
62680;BME280;68213;40.528;44.712;2023-05-11T05:19:11;80619.88;;;12.64;46.24
62680;BME280;68213;40.528;44.712;2023-05-11T05:20:13;80609.44;;;12.52;46.81
62680;BME280;68213;40.528;44.712;2023-05-11T05:21:14;80607.41;;;12.51;47.12
62680;BME280;68213;40.528;44.712;2023-05-11T05:22:15;80619.03;;;12.46;47.12
62680;BME280;68213;40.528;44.712;2023-05-11T05:23:15;80628.00;;;12.41;47.69
62680;BME280;68213;40.528;44.712;2023-05-11T05:24:16;80598.91;;;12.38;47.73
62680;BME280;68213;40.528;44.712;2023-05-11T05:25:17;80630.06;;;12.42;47.40
62680;BME280;68213;40.528;44.712;2023-05-11T05:26:17;80594.03;;;12.47;47.48
62680;BME280;68213;40.528;44.712;2023-05-11T05:27:18;80619.31;;;12.52;47.44
62680;BME280;68213;40.528;44.712;2023-05-11T05:28:21;80615.69;;;12.59;47.42
62680;BME280;68213;40.528;44.712;2023-05-11T05:29:21;80608.38;;;12.58;47.72
62680;BME280;68213;40.528;44.712;2023-05-11T05:30:22;80605.59;;;12.83;47.29
62680;BME280;68213;40.528;44.712;2023-05-11T05:31:23;80617.72;;;12.89;46.65
62680;BME280;68213;40.528;44.712;2023-05-11T05:32:23;80622.31;;;12.88;46.66
62680;BME280;68213;40.528;44.712;2023-05-11T05:33:24;80550.09;;;12.37;45.82
62680;BME280;68213;40.528;44.712;2023-05-11T05:34:25;80603.34;;;12.78;46.56
62680;BME280;68213;40.528;44.712;2023-05-11T05:35:25;80601.81;;;12.73;46.80
62680;BME280;68213;40.528;44.712;2023-05-11T05:36:26;80630.63;;;12.68;46.45
62680;BME280;68213;40.528;44.712;2023-05-11T05:37:27;80607.97;;;12.63;46.53
62680;BME280;68213;40.528;44.712;2023-05-11T05:38:27;80626.72;;;12.56;47.00
62680;BME280;68213;40.528;44.712;2023-05-11T05:39:28;80610.22;;;12.55;46.95
62680;BME280;68213;40.528;44.712;2023-05-11T05:40:28;80605.81;;;12.60;47.12
62680;BME280;68213;40.528;44.712;2023-05-11T05:41:29;80597.34;;;12.61;47.60
62680;BME280;68213;40.528;44.712;2023-05-11T05:42:30;80604.75;;;12.65;47.12
62680;BME280;68213;40.528;44.712;2023-05-11T05:43:31;80623.88;;;12.65;46.93
62680;BME280;68213;40.528;44.712;2023-05-11T05:44:32;80604.25;;;12.54;46.53